Time;durP1;ratioP1;P1;durP2;ratioP2;P2;SDS_P1;SDS_P2;PMS_P1;PMS_P2;Temp;Humidity;BMP_temperature;BMP_pressure;BME280_temperature;BME280_humidity;BME280_pressure;Samples;Min_cycle;Max_cycle;Signal;HPM_P1;HPM_P2
2021/12/16 00:01:47;;;;;;;39.60;12.53;;;10.80;99.90;;;;;;5035003;28;20405;-71
2021/12/16 00:05:10;;;;;;;36.25;12.13;;;10.80;99.90;;;;;;5062192;28;20876;-71
2021/12/16 00:34:11;;;;;;;26.70;10.98;;;10.70;99.90;;;;;;5061915;28;20415;-70
2021/12/16 00:36:40;;;;;;;29.23;10.82;;;10.60;99.90;;;;;;5039761;28;20416;-71
2021/12/16 00:39:10;;;;;;;27.23;10.50;;;10.60;99.90;;;;;;5039822;28;20408;-71
2021/12/16 00:41:38;;;;;;;24.60;11.13;;;10.70;99.90;;;;;;5042256;28;20428;-72
2021/12/16 00:44:20;;;;;;;25.95;10.50;;;10.70;99.90;;;;;;5044618;28;20752;-71
2021/12/16 00:54:46;;;;;;;30.43;10.90;;;10.70;99.90;;;;;;5063969;28;20947;-71
2021/12/16 00:57:15;;;;;;;30.17;11.10;;;10.60;99.90;;;;;;5045838;28;20415;-72
2021/12/16 00:59:45;;;;;;;28.40;11.05;;;10.60;99.90;;;;;;5046759;28;20449;-72
2021/12/16 01:02:50;;;;;;;30.03;11.67;;;10.60;99.90;;;;;;5061111;28;20443;-72
2021/12/16 01:08:35;;;;;;;28.30;12.38;;;10.70;99.90;;;;;;5044078;28;20399;-72
2021/12/16 01:39:28;;;;;;;35.58;14.57;;;10.70;99.90;;;;;;5045799;28;21143;-72
2021/12/16 01:42:18;;;;;;;36.20;14.25;;;10.70;99.90;;;;;;5056733;28;20423;-71
2021/12/16 01:47:39;;;;;;;33.87;14.73;;;10.70;99.90;;;;;;5065297;28;20400;-71
2021/12/16 01:50:12;;;;;;;33.10;14.80;;;10.60;99.90;;;;;;5071967;28;20391;-71
2021/12/16 01:55:28;;;;;;;37.33;15.82;;;10.60;99.90;;;;;;5066536;28;20391;-71
2021/12/16 01:58:10;;;;;;;39.08;16.58;;;10.60;99.90;;;;;;5065453;28;20491;-71
2021/12/16 02:00:52;;;;;;;37.43;16.73;;;10.60;99.90;;;;;;5066695;28;20918;-72
2021/12/16 02:03:25;;;;;;;33.53;16.67;;;10.60;99.90;;;;;;5065254;28;20548;-72
2021/12/16 02:08:22;;;;;;;42.75;17.58;;;10.60;99.90;;;;;;5066607;28;20443;-72
2021/12/16 02:11:10;;;;;;;41.33;17.50;;;10.60;99.90;;;;;;5063726;28;20412;-72
2021/12/16 02:37:49;;;;;;;42.42;19.75;;;10.50;99.90;;;;;;5065094;28;20405;-71
2021/12/16 02:40:17;;;;;;;46.58;20.27;;;10.50;99.90;;;;;;5065295;28;20399;-71
2021/12/16 02:48:38;;;;;;;45.42;20.55;;;10.50;99.90;;;;;;5067557;28;20523;-72
2021/12/16 02:51:09;;;;;;;42.80;20.63;;;10.50;99.90;;;;;;5065413;28;20791;-71
2021/12/16 02:53:38;;;;;;;44.97;21.45;;;10.50;99.90;;;;;;5063984;28;20419;-71
2021/12/16 02:56:05;;;;;;;46.25;21.50;;;10.50;99.90;;;;;;5063168;28;20415;-71
2021/12/16 02:58:31;;;;;;;44.92;21.58;;;10.50;99.90;;;;;;5065294;28;20442;-71
2021/12/16 03:01:05;;;;;;;46.55;21.85;;;10.50;99.90;;;;;;5063100;28;20465;-71
2021/12/16 03:03:31;;;;;;;48.47;22.27;;;10.50;99.90;;;;;;5068461;28;21347;-71
2021/12/16 03:05:59;;;;;;;50.65;21.70;;;10.50;99.90;;;;;;5065132;28;20414;-72
2021/12/16 03:08:25;;;;;;;47.72;22.02;;;10.50;99.90;;;;;;5065088;28;20415;-71
2021/12/16 03:14:01;;;;;;;45.38;22.23;;;10.50;99.90;;;;;;5063402;28;20756;-71
2021/12/16 03:16:33;;;;;;;47.53;21.30;;;10.50;99.90;;;;;;5068559;28;20423;-70
2021/12/16 03:19:17;;;;;;;52.25;23.75;;;10.50;99.90;;;;;;5064128;28;20896;-71
2021/12/16 03:21:51;;;;;;;45.90;22.25;;;10.50;99.90;;;;;;5063974;28;20429;-71
2021/12/16 03:38:09;;;;;;;53.23;25.33;;;10.40;99.90;;;;;;5063461;28;20919;-71
2021/12/16 03:40:37;;;;;;;52.50;24.60;;;10.40;99.90;;;;;;5060770;28;20407;-71
2021/12/16 03:43:14;;;;;;;48.28;24.40;;;10.40;99.90;;;;;;5075195;28;20425;-72
2021/12/16 03:48:50;;;;;;;55.42;25.05;;;10.40;99.90;;;;;;5041872;28;20407;-71
2021/12/16 03:51:38;;;;;;;53.88;24.92;;;10.30;99.90;;;;;;5040134;28;21009;-71
2021/12/16 03:54:09;;;;;;;55.83;26.92;;;10.40;99.90;;;;;;5041900;28;20416;-71
2021/12/16 03:56:38;;;;;;;57.03;27.60;;;10.30;99.90;;;;;;5039005;28;20419;-71
2021/12/16 03:59:12;;;;;;;62.25;26.67;;;10.30;99.90;;;;;;5045659;28;20400;-72
2021/12/16 04:01:55;;;;;;;55.45;27.60;;;10.30;99.90;;;;;;5040364;28;20435;-71
2021/12/16 04:04:28;;;;;;;62.50;26.73;;;10.30;99.90;;;;;;5042897;28;20477;-71
2021/12/16 04:06:55;;;;;;;51.38;25.00;;;10.30;99.90;;;;;;5042285;28;20927;-71
2021/12/16 04:09:22;;;;;;;52.42;27.20;;;10.30;99.90;;;;;;5036508;28;20435;-71
2021/12/16 04:12:09;;;;;;;56.63;26.83;;;10.30;99.90;;;;;;5040000;28;20411;-71
2021/12/16 04:14:38;;;;;;;55.75;26.50;;;10.30;99.90;;;;;;5045327;28;21155;-71
2021/12/16 04:17:06;;;;;;;59.33;27.40;;;10.30;99.90;;;;;;5039764;28;20493;-71
2021/12/16 04:19:43;;;;;;;59.72;27.75;;;10.30;99.90;;;;;;5045586;28;20446;-71
2021/12/16 04:22:16;;;;;;;57.77;25.70;;;10.20;99.90;;;;;;5039835;28;20402;-71
2021/12/16 04:24:47;;;;;;;58.15;25.35;;;10.20;99.90;;;;;;5040523;28;20407;-71
2021/12/16 04:27:14;;;;;;;55.15;25.52;;;10.20;99.90;;;;;;5041271;28;20829;-71
2021/12/16 04:29:41;;;;;;;62.50;26.87;;;10.20;99.90;;;;;;5044182;28;20418;-71
2021/12/16 04:32:07;;;;;;;62.40;27.88;;;10.20;99.90;;;;;;5030542;28;20414;-71
2021/12/16 04:34:34;;;;;;;62.53;26.98;;;10.20;99.90;;;;;;5051292;28;20407;-71
2021/12/16 04:37:03;;;;;;;60.17;26.30;;;10.10;99.90;;;;;;5027227;28;20866;-70
2021/12/16 04:39:31;;;;;;;64.25;26.67;;;10.20;99.90;;;;;;5048839;28;20433;-70
2021/12/16 04:41:59;;;;;;;62.42;26.92;;;10.20;99.90;;;;;;5055434;28;20506;-70
2021/12/16 04:44:27;;;;;;;62.88;25.52;;;10.20;99.90;;;;;;5067850;28;20530;-70
2021/12/16 04:46:55;;;;;;;58.65;24.83;;;10.10;99.90;;;;;;5066590;28;20772;-71
2021/12/16 04:49:21;;;;;;;59.50;26.20;;;10.10;99.90;;;;;;5066867;28;20412;-71
2021/12/16 04:51:51;;;;;;;65.47;26.38;;;10.20;99.90;;;;;;5066456;28;20407;-71
2021/12/16 04:54:19;;;;;;;62.85;25.67;;;10.20;99.90;;;;;;5067199;28;20509;-70
2021/12/16 04:56:47;;;;;;;58.08;25.92;;;10.10;99.90;;;;;;5063251;28;20529;-70
2021/12/16 04:59:16;;;;;;;54.42;24.85;;;10.10;99.90;;;;;;5067256;28;20403;-71
2021/12/16 05:01:50;;;;;;;55.67;25.10;;;10.10;99.90;;;;;;5066043;28;20415;-70
2021/12/16 05:04:25;;;;;;;66.30;25.45;;;10.10;99.90;;;;;;5067038;28;20403;-70
2021/12/16 05:06:51;;;;;;;62.00;24.47;;;10.10;99.90;;;;;;5066587;28;20434;-70
2021/12/16 05:09:53;;;;;;;62.05;24.85;;;10.10;99.90;;;;;;5064681;28;20444;-71
2021/12/16 05:12:06;;;;;;;61.60;23.85;;;10.10;99.90;;;;;;5066203;28;20495;-70
2021/12/16 05:14:32;;;;;;;54.33;23.38;;;10.10;99.90;;;;;;5065647;28;21064;-70
2021/12/16 05:16:59;;;;;;;53.07;22.97;;;10.10;99.90;;;;;;5066578;28;20411;-70
2021/12/16 05:19:25;;;;;;;56.20;23.75;;;10.10;99.90;;;;;;5066861;28;20479;-71
2021/12/16 05:24:15;;;;;;;55.08;24.88;;;10.00;99.90;;;;;;5065952;28;20494;-70
2021/12/16 05:24:46;;;;;;;62.92;24.98;;;10.00;99.90;;;;;;5066393;28;20413;-70
2021/12/16 05:27:17;;;;;;;53.07;23.50;;;10.00;99.90;;;;;;5066662;28;20408;-70
2021/12/16 05:29:44;;;;;;;55.47;23.47;;;10.00;99.90;;;;;;5068309;28;20435;-70
2021/12/16 05:32:12;;;;;;;59.90;22.77;;;10.00;99.90;;;;;;5080331;28;20760;-71
2021/12/16 05:34:38;;;;;;;53.25;22.67;;;9.90;99.90;;;;;;5066075;28;20423;-71
2021/12/16 05:37:05;;;;;;;57.43;22.87;;;9.90;99.90;;;;;;5065368;28;20422;-71
2021/12/16 05:39:34;;;;;;;48.40;21.33;;;10.00;99.90;;;;;;5066242;28;20439;-71
2021/12/16 05:42:17;;;;;;;55.65;21.60;;;10.00;99.90;;;;;;5054592;28;20427;-71
2021/12/16 05:44:43;;;;;;;47.92;21.02;;;10.00;99.90;;;;;;5041848;28;20436;-71
2021/12/16 05:47:09;;;;;;;52.47;22.40;;;10.00;99.90;;;;;;5048431;28;20879;-71
2021/12/16 05:49:35;;;;;;;47.33;20.83;;;10.00;99.90;;;;;;5049912;28;20892;-71
2021/12/16 05:52:02;;;;;;;52.47;22.38;;;10.00;99.90;;;;;;5048243;28;20918;-71
2021/12/16 05:54:28;;;;;;;46.35;21.67;;;10.00;99.90;;;;;;5083322;28;20473;-71
2021/12/16 05:57:19;;;;;;;47.53;21.85;;;10.00;99.90;;;;;;5063082;28;20450;-71
2021/12/16 05:59:52;;;;;;;50.08;21.67;;;10.00;99.90;;;;;;5048810;28;20491;-71
2021/12/16 06:02:18;;;;;;;53.08;24.38;;;9.90;99.90;;;;;;5048478;28;20415;-71
2021/12/16 06:04:43;;;;;;;51.03;21.57;;;9.90;99.90;;;;;;5067638;28;20745;-71
2021/12/16 06:07:12;;;;;;;53.45;24.00;;;9.90;99.90;;;;;;5048080;28;20442;-71
2021/12/16 06:09:38;;;;;;;51.97;22.90;;;9.90;99.90;;;;;;5080601;28;20445;-71
2021/12/16 06:12:04;;;;;;;58.50;24.02;;;9.90;99.90;;;;;;5047337;28;20494;-72
2021/12/16 06:27:44;;;;;;;47.97;21.27;;;9.80;99.90;;;;;;5066112;28;20418;-71
2021/12/16 06:30:13;;;;;;;47.90;21.23;;;9.80;99.90;;;;;;5066625;28;20441;-71
2021/12/16 06:32:39;;;;;;;46.70;20.87;;;9.80;99.90;;;;;;5066331;28;20872;-71
2021/12/16 06:35:07;;;;;;;47.38;21.00;;;9.80;99.90;;;;;;5066703;28;20620;-71
2021/12/16 06:37:33;;;;;;;51.53;21.83;;;9.80;99.90;;;;;;5048219;28;20485;-71
2021/12/16 06:40:00;;;;;;;45.35;20.65;;;9.80;99.90;;;;;;5047647;28;20433;-71
2021/12/16 06:42:48;;;;;;;45.50;19.33;;;9.70;99.90;;;;;;5046120;28;20422;-73
2021/12/16 06:45:21;;;;;;;38.22;18.63;;;9.70;99.90;;;;;;5046966;28;20966;-72
2021/12/16 06:48:11;;;;;;;41.10;20.13;;;9.70;99.90;;;;;;5064064;28;20737;-71
2021/12/16 06:50:51;;;;;;;53.17;24.15;;;9.70;99.90;;;;;;5061908;28;20942;-71
2021/12/16 06:53:33;;;;;;;41.67;19.67;;;9.60;99.90;;;;;;5044577;28;20427;-71
2021/12/16 06:58:35;;;;;;;48.67;22.08;;;9.60;99.90;;;;;;5064129;28;20419;-70
2021/12/16 07:01:16;;;;;;;50.87;21.00;;;9.60;99.90;;;;;;5062780;28;20438;-68
2021/12/16 07:03:47;;;;;;;44.33;19.83;;;9.60;99.90;;;;;;5065820;28;20803;-70
2021/12/16 07:06:17;;;;;;;43.17;20.13;;;9.60;99.90;;;;;;5063009;28;20477;-69
2021/12/16 07:08:44;;;;;;;43.85;20.13;;;9.60;99.90;;;;;;5065571;28;20419;-69
2021/12/16 07:11:09;;;;;;;47.28;20.08;;;9.60;99.90;;;;;;5045710;28;20434;-70
2021/12/16 07:13:40;;;;;;;40.88;20.02;;;9.60;99.90;;;;;;5064492;28;20457;-69
2021/12/16 07:16:06;;;;;;;43.17;19.73;;;9.60;99.90;;;;;;5061741;28;20392;-70
2021/12/16 07:18:32;;;;;;;46.97;21.50;;;9.60;99.90;;;;;;5060939;28;20840;-70
2021/12/16 07:20:58;;;;;;;43.30;20.08;;;9.50;99.90;;;;;;5060967;28;20498;-70
2021/12/16 07:23:24;;;;;;;1621.13;93.70;;;9.60;99.90;;;;;;5062259;28;20403;-72
2021/12/16 07:25:49;;;;;;;48.95;21.73;;;9.50;99.90;;;;;;5062214;28;20439;-72
2021/12/16 07:28:15;;;;;;;48.93;19.67;;;9.50;99.90;;;;;;5058475;28;20422;-70
2021/12/16 07:30:44;;;;;;;43.73;19.23;;;9.50;99.90;;;;;;5061999;28;20486;-71
2021/12/16 07:33:12;;;;;;;47.83;20.85;;;9.50;99.90;;;;;;5064549;28;20415;-71
2021/12/16 07:35:39;;;;;;;41.87;20.70;;;9.50;99.90;;;;;;5062591;28;20426;-71
2021/12/16 07:38:05;;;;;;;53.28;24.38;;;9.50;99.90;;;;;;5063417;28;20408;-71
2021/12/16 07:40:34;;;;;;;46.10;21.60;;;9.50;99.90;;;;;;5039336;28;20416;-71
2021/12/16 07:45:31;;;;;;;42.75;21.15;;;9.40;99.90;;;;;;5056526;28;20500;-70
2021/12/16 07:47:57;;;;;;;51.35;21.52;;;9.40;99.90;;;;;;5042956;28;20411;-70
2021/12/16 07:50:24;;;;;;;48.40;20.77;;;9.40;99.90;;;;;;5043932;28;20413;-69
2021/12/16 07:52:50;;;;;;;43.38;19.20;;;9.40;99.90;;;;;;5043666;28;20426;-70
2021/12/16 07:55:17;;;;;;;50.05;24.52;;;9.40;99.90;;;;;;5058774;28;20415;-72
2021/12/16 07:57:43;;;;;;;85.75;45.60;;;9.40;99.90;;;;;;5060059;28;20504;-69
2021/12/16 08:00:18;;;;;;;50.22;21.70;;;9.50;99.90;;;;;;5063604;28;20407;-72
2021/12/16 08:02:44;;;;;;;41.77;21.60;;;9.50;99.90;;;;;;5063331;28;20407;-71
2021/12/16 08:05:11;;;;;;;46.17;21.85;;;9.50;99.90;;;;;;5064234;28;20442;-70
2021/12/16 08:07:39;;;;;;;50.55;20.42;;;9.50;99.90;;;;;;5045036;28;20415;-70
2021/12/16 08:10:07;;;;;;;42.85;21.05;;;9.50;99.90;;;;;;5059922;28;20450;-71
2021/12/16 08:12:33;;;;;;;45.55;22.27;;;9.50;99.90;;;;;;5056529;28;20467;-71
2021/12/16 08:14:59;;;;;;;64.55;34.13;;;9.50;99.90;;;;;;5062218;28;20891;-70
2021/12/16 08:17:25;;;;;;;43.60;22.00;;;9.50;99.90;;;;;;5042842;28;20825;-71
2021/12/16 08:19:51;;;;;;;47.57;23.70;;;9.60;99.90;;;;;;5054919;28;20405;-72
2021/12/16 08:22:16;;;;;;;55.90;29.75;;;9.50;99.90;;;;;;5061920;28;20514;-71
2021/12/16 08:24:42;;;;;;;45.40;24.40;;;9.60;99.90;;;;;;5062265;28;20412;-70
2021/12/16 08:27:09;;;;;;;54.35;25.08;;;9.60;99.90;;;;;;5059527;28;20450;-70
2021/12/16 08:29:35;;;;;;;51.28;24.40;;;9.60;99.90;;;;;;5061908;28;20494;-71
2021/12/16 08:32:02;;;;;;;44.88;21.95;;;9.60;99.90;;;;;;5063522;28;20500;-70
2021/12/16 08:34:30;;;;;;;39.55;20.77;;;9.70;99.90;;;;;;5061983;28;20444;-70
2021/12/16 08:36:56;;;;;;;40.42;20.75;;;9.70;99.90;;;;;;5059410;28;20417;-69
2021/12/16 08:39:23;;;;;;;45.53;21.10;;;9.80;99.90;;;;;;5040696;28;20926;-70
2021/12/16 08:41:53;;;;;;;55.35;24.60;;;9.80;99.90;;;;;;5058601;28;20417;-70
2021/12/16 08:44:19;;;;;;;57.75;29.58;;;9.80;99.90;;;;;;5059944;28;20472;-74
2021/12/16 08:46:49;;;;;;;52.83;24.87;;;9.90;99.90;;;;;;5062648;28;20399;-72
2021/12/16 08:49:15;;;;;;;47.92;22.13;;;9.90;99.90;;;;;;5027633;28;20423;-72
2021/12/16 08:51:46;;;;;;;42.40;20.23;;;10.00;99.90;;;;;;5027890;28;20500;-72
2021/12/16 08:54:12;;;;;;;43.10;21.42;;;10.00;99.90;;;;;;5062600;28;20509;-73
2021/12/16 08:56:39;;;;;;;42.42;20.77;;;10.10;99.90;;;;;;5046422;28;20989;-75
2021/12/16 08:59:05;;;;;;;43.22;21.20;;;10.10;99.90;;;;;;5060743;28;20440;-76
2021/12/16 09:01:34;;;;;;;38.40;19.40;;;10.10;99.90;;;;;;5061844;28;20430;-75
2021/12/16 09:04:00;;;;;;;38.63;19.27;;;10.20;99.90;;;;;;5061460;28;20540;-74
2021/12/16 09:06:26;;;;;;;42.63;20.33;;;10.20;99.90;;;;;;5064001;28;21217;-74
2021/12/16 09:08:53;;;;;;;34.78;19.52;;;10.30;99.90;;;;;;5062178;28;20407;-74
2021/12/16 09:11:23;;;;;;;39.07;20.20;;;10.40;99.90;;;;;;5060487;28;20420;-74
2021/12/16 09:13:51;;;;;;;34.03;18.05;;;10.50;99.90;;;;;;5038891;28;20445;-74
2021/12/16 09:16:22;;;;;;;32.83;15.73;;;11.00;99.90;;;;;;5063108;28;20500;-74
2021/12/16 09:18:48;;;;;;;26.88;14.38;;;12.00;99.90;;;;;;5044798;28;20415;-74
2021/12/16 09:21:18;;;;;;;27.90;13.97;;;13.10;99.90;;;;;;5047516;28;20935;-75
2021/12/16 09:23:45;;;;;;;29.88;13.77;;;14.20;99.90;;;;;;5064642;28;20812;-74
2021/12/16 09:26:12;;;;;;;21.83;11.10;;;15.20;99.90;;;;;;5065605;28;20407;-74
2021/12/16 09:28:39;;;;;;;18.73;11.20;;;16.20;98.90;;;;;;5080252;28;21003;-74
2021/12/16 09:31:10;;;;;;;22.48;11.10;;;17.00;97.50;;;;;;5062511;28;20419;-74
2021/12/16 09:33:36;;;;;;;;;;;17.80;95.00;;;;;;5066595;28;20731;-74
2021/12/16 09:36:03;;;;;;;;;;;17.20;97.10;;;;;;5050498;28;19917;-74
2021/12/16 09:38:29;;;;;;;;;;;16.80;98.90;;;;;;5065174;28;19960;-73
2021/12/16 09:40:55;;;;;;;;;;;16.70;99.90;;;;;;5049126;28;20301;-74
2021/12/16 09:43:26;;;;;;;;;;;16.60;99.90;;;;;;5069104;28;20353;-73
2021/12/16 09:45:52;;;;;;;;;;;16.70;99.90;;;;;;5069503;28;20611;-74
2021/12/16 09:48:18;;;;;;;;;;;16.80;99.90;;;;;;5069750;28;20548;-73
2021/12/16 09:50:44;;;;;;;;;;;16.90;99.90;;;;;;5069297;28;19994;-74
2021/12/16 09:53:09;;;;;;;;;;;17.00;99.90;;;;;;5070330;28;20395;-74
2021/12/16 09:55:35;;;;;;;;;;;17.20;99.90;;;;;;5073071;28;19912;-74
2021/12/16 09:58:03;;;;;;;;;;;17.10;99.90;;;;;;5068332;28;20029;-73
2021/12/16 10:00:29;;;;;;;;;;;16.80;99.90;;;;;;5077570;28;20023;-74
2021/12/16 10:02:55;;;;;;;;;;;16.30;99.90;;;;;;5076717;28;20420;-74
2021/12/16 10:05:21;;;;;;;22.38;10.45;;;15.80;99.90;;;;;;5067933;28;20212;-74
2021/12/16 10:07:47;;;;;;;24.40;12.30;;;15.50;99.90;;;;;;5065889;28;20473;-74
2021/12/16 10:10:17;;;;;;;23.40;12.37;;;16.20;98.90;;;;;;5064099;28;20431;-74
2021/12/16 10:12:45;;;;;;;22.77;12.43;;;16.40;96.80;;;;;;5066891;28;20420;-74
2021/12/16 10:18:03;;;;;;;22.70;12.43;;;15.90;97.10;;;;;;5068280;28;20281;-74
2021/12/16 10:20:38;;;;;;;25.70;13.32;;;15.00;98.60;;;;;;5066814;28;20425;-74
2021/12/16 10:23:11;;;;;;;29.20;14.20;;;15.00;99.00;;;;;;5068536;28;20408;-75
2021/12/16 10:25:40;;;;;;;28.65;14.25;;;14.80;99.50;;;;;;5064844;28;20411;-74
2021/12/16 10:28:14;;;;;;;30.33;15.18;;;14.60;99.90;;;;;;5065964;28;20471;-74
2021/12/16 10:31:04;;;;;;;26.05;13.88;;;14.50;99.90;;;;;;5063611;28;20410;-74
2021/12/16 10:33:40;;;;;;;31.67;15.00;;;14.30;99.90;;;;;;5067122;28;20434;-73
2021/12/16 10:36:11;;;;;;;26.17;14.40;;;14.20;99.90;;;;;;5064037;28;20457;-73
2021/12/16 10:39:00;;;;;;;31.40;14.63;;;14.10;99.90;;;;;;5065713;28;20494;-73
2021/12/16 10:41:32;;;;;;;32.25;14.38;;;14.00;99.90;;;;;;5063650;28;20419;-73
2021/12/16 10:44:24;;;;;;;30.42;14.88;;;13.90;99.90;;;;;;5065729;28;20970;-73
2021/12/16 10:46:59;;;;;;;31.53;15.00;;;13.80;99.90;;;;;;5040143;28;20765;-74
2021/12/16 10:49:34;;;;;;;32.03;15.47;;;13.80;99.90;;;;;;5056668;28;20489;-75
2021/12/16 10:52:12;;;;;;;32.08;16.23;;;13.70;99.90;;;;;;5044997;28;20718;-74
2021/12/16 10:54:41;;;;;;;28.75;15.13;;;13.70;99.90;;;;;;5063627;28;20500;-76
2021/12/16 10:57:22;;;;;;;32.93;15.53;;;13.70;99.90;;;;;;5043378;28;20411;-75
2021/12/16 11:00:02;;;;;;;32.58;15.63;;;13.70;99.90;;;;;;5061450;28;20514;-75
2021/12/16 11:02:35;;;;;;;34.33;15.80;;;13.70;99.90;;;;;;5060563;28;20769;-76
2021/12/16 11:05:16;;;;;;;33.60;15.95;;;13.70;99.90;;;;;;5046116;28;20505;-75
2021/12/16 11:07:43;;;;;;;32.60;15.37;;;13.70;99.90;;;;;;5058048;28;20436;-75
2021/12/16 11:10:19;;;;;;;30.15;15.25;;;13.70;99.90;;;;;;5063537;28;20460;-75
2021/12/16 11:12:58;;;;;;;33.03;15.73;;;13.70;99.90;;;;;;5060162;28;20947;-75
2021/12/16 11:15:33;;;;;;;35.20;15.05;;;13.80;99.90;;;;;;5045547;28;20429;-75
2021/12/16 11:18:14;;;;;;;32.90;14.73;;;13.90;99.90;;;;;;5061127;28;21206;-74
2021/12/16 11:21:05;;;;;;;33.17;15.43;;;13.90;99.90;;;;;;5054058;28;20407;-75
2021/12/16 11:23:34;;;;;;;33.10;15.90;;;14.00;99.90;;;;;;5060472;28;20560;-76
2021/12/16 11:26:08;;;;;;;33.22;16.02;;;14.00;99.90;;;;;;5040739;28;20902;-75
2021/12/16 11:28:37;;;;;;;34.22;16.08;;;14.00;99.90;;;;;;5042378;28;20408;-74
2021/12/16 11:31:15;;;;;;;30.05;14.98;;;14.10;99.90;;;;;;5060114;28;20420;-75
2021/12/16 11:33:44;;;;;;;27.98;14.25;;;14.30;99.90;;;;;;5064440;28;20873;-75
2021/12/16 11:36:16;;;;;;;32.70;15.32;;;14.60;99.90;;;;;;5060377;28;20473;-73
2021/12/16 11:38:47;;;;;;;36.47;15.43;;;15.00;99.90;;;;;;5062345;28;20411;-74
2021/12/16 11:41:14;;;;;;;37.63;15.50;;;15.20;99.90;;;;;;5048968;28;20483;-72
2021/12/16 11:43:42;;;;;;;34.20;16.65;;;15.40;99.90;;;;;;5065095;28;20745;-72
2021/12/16 11:46:34;;;;;;;28.75;15.18;;;15.50;99.90;;;;;;5063817;28;20472;-71
2021/12/16 11:49:05;;;;;;;34.97;15.17;;;15.50;99.90;;;;;;5061527;28;21017;-73
2021/12/16 11:51:54;;;;;;;32.00;15.07;;;15.50;99.90;;;;;;5064589;28;20628;-71
2021/12/16 11:54:28;;;;;;;31.85;14.77;;;15.70;99.90;;;;;;5062303;28;20415;-71
2021/12/16 11:57:24;;;;;;;29.33;13.52;;;15.90;99.90;;;;;;5063557;28;20495;-72
2021/12/16 11:59:55;;;;;;;29.38;14.15;;;16.20;99.40;;;;;;5063711;28;20411;-71
2021/12/16 12:02:32;;;;;;;34.30;15.53;;;16.50;98.80;;;;;;5064336;28;20419;-71
2021/12/16 12:05:23;;;;;;;33.92;14.40;;;16.70;98.10;;;;;;5065659;28;20899;-73
2021/12/16 12:07:53;;;;;;;28.90;13.02;;;16.70;97.60;;;;;;5073012;28;20415;-72
2021/12/16 12:11:00;;;;;;;31.73;14.18;;;16.70;98.00;;;;;;5063908;28;20478;-72
2021/12/16 12:13:30;;;;;;;31.23;14.38;;;16.80;97.20;;;;;;5063604;28;20427;-73
2021/12/16 12:16:02;;;;;;;30.73;13.95;;;17.00;96.70;;;;;;5063225;28;20453;-73
2021/12/16 12:18:32;;;;;;;30.30;14.20;;;17.10;96.40;;;;;;5065506;28;20403;-71
2021/12/16 12:21:19;;;;;;;25.75;13.40;;;17.20;96.10;;;;;;5062609;28;22139;-71
2021/12/16 12:23:47;;;;;;;28.10;13.25;;;17.30;96.00;;;;;;5069436;28;20419;-72
2021/12/16 12:26:16;;;;;;;28.70;13.63;;;17.30;95.80;;;;;;5062648;28;20423;-74
2021/12/16 12:28:47;;;;;;;26.63;12.27;;;17.50;95.60;;;;;;5065523;28;20464;-73
2021/12/16 12:31:16;;;;;;;25.52;12.65;;;17.60;95.00;;;;;;5063858;28;20411;-73
2021/12/16 12:33:42;;;;;;;25.07;12.13;;;17.90;94.80;;;;;;5063529;28;20907;-72
2021/12/16 12:36:08;;;;;;;25.95;12.55;;;18.00;93.90;;;;;;5063990;28;20780;-72
2021/12/16 12:38:36;;;;;;;23.85;12.60;;;18.00;93.80;;;;;;5066536;28;20804;-73
2021/12/16 12:41:05;;;;;;;26.47;12.30;;;18.20;93.50;;;;;;5068030;28;20461;-73
2021/12/16 12:43:33;;;;;;;26.50;11.67;;;18.20;93.10;;;;;;5060679;28;20443;-72
2021/12/16 12:46:05;;;;;;;25.17;12.67;;;18.20;92.90;;;;;;5059030;28;20515;-73
2021/12/16 12:48:34;;;;;;;25.40;12.90;;;18.20;93.00;;;;;;5042995;28;20426;-74
2021/12/16 12:51:01;;;;;;;25.87;11.50;;;18.20;93.10;;;;;;5064533;28;20416;-74
2021/12/16 12:53:33;;;;;;;23.45;10.70;;;18.20;93.00;;;;;;5067213;28;20455;-74
2021/12/16 12:56:28;;;;;;;22.42;10.73;;;18.20;92.70;;;;;;5045081;28;20494;-74
2021/12/16 12:59:04;;;;;;;24.85;12.98;;;18.00;92.70;;;;;;5064429;28;20422;-74
2021/12/16 13:01:56;;;;;;;23.75;12.48;;;18.00;93.30;;;;;;5064462;28;20471;-74
2021/12/16 13:04:27;;;;;;;25.02;12.15;;;18.00;93.40;;;;;;5043314;28;20587;-74
2021/12/16 13:06:58;;;;;;;22.60;11.13;;;18.10;93.50;;;;;;5046779;28;20532;-74
2021/12/16 13:09:31;;;;;;;24.15;11.82;;;18.10;93.40;;;;;;5048654;28;20504;-74
2021/12/16 13:11:58;;;;;;;23.92;12.40;;;18.10;93.00;;;;;;5061597;28;20439;-74
2021/12/16 13:14:46;;;;;;;20.65;10.27;;;18.10;93.00;;;;;;5067537;28;20419;-74
2021/12/16 13:23:19;;;;;;;19.50;9.90;;;18.10;92.70;;;;;;5062607;28;20415;-74
2021/12/16 13:26:17;;;;;;;24.27;9.68;;;18.10;92.30;;;;;;5059617;28;20411;-74
2021/12/16 13:29:01;;;;;;;20.48;10.43;;;18.10;92.00;;;;;;5065089;28;20404;-74
2021/12/16 13:32:24;;;;;;;23.63;10.90;;;18.00;92.50;;;;;;5027946;28;20984;-74
2021/12/16 13:34:33;;;;;;;23.92;10.50;;;17.90;92.60;;;;;;5058201;28;20953;-74
2021/12/16 13:37:06;;;;;;;20.67;10.53;;;17.90;93.10;;;;;;5062815;28;20418;-74
2021/12/16 13:39:32;;;;;;;20.92;10.18;;;17.80;92.80;;;;;;5066697;28;20395;-74
2021/12/16 13:41:57;;;;;;;19.10;10.13;;;17.70;92.70;;;;;;5057554;28;20415;-74
2021/12/16 13:44:45;;;;;;;20.00;9.90;;;17.60;92.70;;;;;;5047251;28;20558;-74
2021/12/16 13:47:25;;;;;;;22.35;10.48;;;17.50;93.10;;;;;;5061399;28;20422;-74
2021/12/16 14:10:15;;;;;;;22.27;11.32;;;16.90;95.30;;;;;;5065845;28;20412;-73
2021/12/16 14:15:57;;;;;;;24.75;10.93;;;16.90;95.50;;;;;;5062216;28;20954;-72
2021/12/16 14:24:17;;;;;;;25.60;11.30;;;16.60;95.50;;;;;;5061710;28;20447;-72
2021/12/16 14:27:08;;;;;;;24.25;11.63;;;16.60;95.70;;;;;;5059480;28;20411;-71
2021/12/16 14:33:16;;;;;;;25.75;12.43;;;16.50;96.00;;;;;;5058837;28;20441;-72
2021/12/16 14:35:19;;;;;;;30.25;12.45;;;16.40;96.10;;;;;;5045760;28;20412;-72
2021/12/16 14:38:06;;;;;;;24.95;12.88;;;16.30;96.20;;;;;;5058810;28;20411;-72
2021/12/16 14:40:49;;;;;;;27.80;13.23;;;16.30;96.20;;;;;;5062608;28;20428;-72
2021/12/16 14:43:20;;;;;;;28.90;13.65;;;16.10;96.20;;;;;;5066294;28;20748;-72
2021/12/16 14:45:54;;;;;;;28.63;14.10;;;16.00;96.50;;;;;;5065209;28;21304;-72
2021/12/16 14:48:35;;;;;;;26.92;12.90;;;15.90;97.20;;;;;;5066944;28;20494;-70
2021/12/16 14:51:19;;;;;;;28.80;13.50;;;15.80;97.40;;;;;;5063042;28;20407;-71
2021/12/16 14:53:51;;;;;;;30.85;15.90;;;15.70;97.30;;;;;;5064756;28;20874;-71
2021/12/16 14:56:20;;;;;;;29.50;15.10;;;15.50;97.70;;;;;;5064398;28;21081;-71
2021/12/16 14:59:03;;;;;;;30.20;13.68;;;15.40;98.20;;;;;;5050567;28;20995;-70
2021/12/16 15:01:33;;;;;;;30.38;14.57;;;15.30;98.20;;;;;;5065345;28;20423;-71
2021/12/16 15:04:01;;;;;;;31.47;15.00;;;15.30;98.30;;;;;;5050637;28;20411;-71
2021/12/16 15:06:38;;;;;;;32.10;15.40;;;15.20;98.40;;;;;;5063435;28;20406;-71
2021/12/16 15:12:02;;;;;;;33.10;16.10;;;15.00;99.10;;;;;;5063746;28;20427;-71
2021/12/16 15:17:16;;;;;;;32.25;17.88;;;14.80;99.30;;;;;;5066152;28;20419;-71
2021/12/16 15:39:43;;;;;;;36.28;18.10;;;14.00;99.90;;;;;;5032518;28;21217;-69
2021/12/16 15:45:01;;;;;;;43.47;19.20;;;13.90;99.90;;;;;;5064991;28;20581;-68
2021/12/16 15:47:28;;;;;;;39.67;19.33;;;13.80;99.90;;;;;;5070277;28;20421;-69
2021/12/16 15:49:54;;;;;;;41.25;19.35;;;13.80;99.90;;;;;;5069784;28;20415;-69
2021/12/16 15:52:20;;;;;;;39.50;20.10;;;13.70;99.90;;;;;;5062961;28;20419;-69
2021/12/16 15:54:50;;;;;;;38.28;20.27;;;13.70;99.90;;;;;;5063883;28;20421;-69
2021/12/16 15:57:23;;;;;;;43.40;21.50;;;13.60;99.90;;;;;;5060835;28;20488;-70
2021/12/16 15:59:50;;;;;;;44.95;21.40;;;13.60;99.90;;;;;;5064558;28;20780;-69
2021/12/16 16:02:18;;;;;;;41.05;21.00;;;13.60;99.90;;;;;;5063646;28;20551;-70
2021/12/16 16:04:44;;;;;;;44.38;21.50;;;13.50;99.90;;;;;;5065197;28;20418;-71
2021/12/16 16:07:12;;;;;;;46.30;21.50;;;13.50;99.90;;;;;;5075362;28;20403;-70
2021/12/16 16:09:46;;;;;;;42.72;21.25;;;13.50;99.90;;;;;;5064022;28;20435;-70
2021/12/16 16:12:17;;;;;;;55.03;23.13;;;13.50;99.90;;;;;;5070287;28;20806;-70
2021/12/16 16:14:49;;;;;;;46.47;22.37;;;13.40;99.90;;;;;;5064639;28;20419;-70
2021/12/16 16:17:19;;;;;;;46.90;22.43;;;13.40;99.90;;;;;;5062470;28;20403;-69
2021/12/16 16:19:48;;;;;;;46.00;22.17;;;13.30;99.90;;;;;;5062896;28;20461;-70
2021/12/16 16:22:14;;;;;;;54.25;23.00;;;13.30;99.90;;;;;;5065113;28;20406;-69
2021/12/16 16:24:43;;;;;;;46.10;22.48;;;13.30;99.90;;;;;;5065211;28;20486;-69
2021/12/16 16:27:13;;;;;;;49.10;23.33;;;13.20;99.90;;;;;;5070978;28;20445;-71
2021/12/16 16:29:42;;;;;;;51.35;23.30;;;13.20;99.90;;;;;;5068508;28;20419;-70